Time;durP1;ratioP1;P1;durP2;ratioP2;P2;SDS_P1;SDS_P2;PMS_P1;PMS_P2;Temp;Humidity;BMP_temperature;BMP_pressure;BME280_temperature;BME280_humidity;BME280_pressure;Samples;Min_cycle;Max_cycle;Signal;HPM_P1;HPM_P2
2022/12/09 00:02:01;;;;;;;26.88;8.75;;;;;;;-2.67;82.61;99985.81;4981110;28;20653;-55
2022/12/09 00:04:27;;;;;;;22.35;9.45;;;;;;;-2.60;82.88;100000.38;4983052;28;20042;-50
2022/12/09 00:06:53;;;;;;;20.88;6.95;;;;;;;-2.63;82.77;99998.66;4991266;28;20054;-49
2022/12/09 00:09:19;;;;;;;20.75;8.43;;;;;;;-2.80;83.01;99977.03;4988338;28;20042;-54
2022/12/09 00:11:45;;;;;;;24.42;10.00;;;;;;;-2.67;82.83;99990.91;4991550;28;20046;-53
2022/12/09 00:14:11;;;;;;;26.77;10.88;;;;;;;-2.56;83.22;99997.94;4974605;28;20050;-54
2022/12/09 00:16:38;;;;;;;25.88;10.55;;;;;;;-2.49;82.87;99993.00;4998659;28;20137;-49
2022/12/09 00:19:06;;;;;;;22.23;8.82;;;;;;;-2.50;82.81;99999.78;4988859;28;20073;-52
2022/12/09 00:21:32;;;;;;;23.35;9.00;;;;;;;-2.48;82.55;100005.78;4991437;28;20059;-49
2022/12/09 00:24:01;;;;;;;27.40;9.38;;;;;;;-2.50;82.85;100011.63;4981173;28;20042;-56
2022/12/09 00:26:27;;;;;;;26.83;10.50;;;;;;;-2.51;82.85;100005.69;4976079;28;20042;-50
2022/12/09 00:28:53;;;;;;;18.38;6.82;;;;;;;-2.44;82.84;100004.13;4986743;28;20037;-50
2022/12/09 00:31:23;;;;;;;26.77;10.18;;;;;;;-2.40;82.58;99998.28;4990927;28;20054;-50
2022/12/09 00:33:50;;;;;;;26.23;9.25;;;;;;;-2.34;82.31;99999.28;4989822;28;20038;-54
2022/12/09 00:36:21;;;;;;;26.98;10.30;;;;;;;-2.46;82.09;99995.63;4990540;28;20414;-52
2022/12/09 00:38:48;;;;;;;26.10;9.57;;;;;;;-2.66;82.40;99955.28;4973814;28;20205;-56
2022/12/09 00:41:16;;;;;;;18.77;8.40;;;;;;;-2.35;82.24;100009.44;4989349;28;20100;-50
2022/12/09 00:43:42;;;;;;;23.33;10.10;;;;;;;-2.32;82.07;100007.84;5004350;28;20513;-52
2022/12/09 00:46:09;;;;;;;21.90;8.80;;;;;;;-2.32;82.03;100012.06;4968897;28;20042;-53
2022/12/09 00:48:37;;;;;;;27.48;10.05;;;;;;;-2.31;82.17;100012.09;4986620;28;20066;-50
2022/12/09 00:51:07;;;;;;;22.38;9.23;;;;;;;-2.46;81.93;99988.81;4973231;28;20574;-53
2022/12/09 00:53:33;;;;;;;23.67;9.73;;;;;;;-2.45;81.83;99982.06;4989832;28;20058;-49
2022/12/09 00:55:59;;;;;;;21.17;8.45;;;;;;;-2.26;81.72;100007.13;4998018;28;21078;-51
2022/12/09 00:58:25;;;;;;;28.80;10.27;;;;;;;-2.44;82.18;99978.69;4972528;28;20043;-56
2022/12/09 01:00:54;;;;;;;22.15;8.20;;;;;;;-2.28;81.67;99998.56;4987805;28;20054;-53
2022/12/09 01:03:21;;;;;;;23.63;8.57;;;;;;;-2.44;81.55;99968.50;4992334;28;20125;-52
2022/12/09 01:05:47;;;;;;;25.02;9.50;;;;;;;-2.28;81.54;100001.13;4988968;28;20038;-52
2022/12/09 01:08:14;;;;;;;20.98;9.85;;;;;;;-2.22;81.33;99997.03;4979993;28;20038;-50
2022/12/09 01:10:43;;;;;;;22.25;9.40;;;;;;;-2.15;81.18;100010.75;4961854;28;20042;-50
2022/12/09 01:13:10;;;;;;;19.35;6.97;;;;;;;-2.14;81.09;100005.69;4975939;28;20149;-49
2022/12/09 01:15:37;;;;;;;27.20;9.90;;;;;;;-2.12;80.94;100005.72;4984723;28;20040;-54
2022/12/09 01:18:04;;;;;;;26.70;9.20;;;;;;;-2.08;80.89;100002.41;4987705;28;20046;-50
2022/12/09 01:20:30;;;;;;;23.02;9.02;;;;;;;-2.08;80.82;99994.75;4989682;28;20050;-53
2022/12/09 01:22:58;;;;;;;16.13;7.20;;;;;;;-2.16;80.84;99992.06;4979271;28;20038;-50
2022/12/09 01:25:25;;;;;;;21.00;8.27;;;;;;;-2.18;80.55;99995.41;5002904;28;20434;-51
2022/12/09 01:27:50;;;;;;;20.95;7.95;;;;;;;-2.21;80.45;99992.78;4990656;28;20149;-52
2022/12/09 01:30:17;;;;;;;18.95;7.68;;;;;;;-2.40;80.71;99955.88;4999058;28;20498;-51
2022/12/09 01:32:43;;;;;;;17.23;7.53;;;;;;;-2.21;80.71;99990.25;4980122;28;20043;-53
2022/12/09 01:35:09;;;;;;;19.17;8.35;;;;;;;-2.24;80.46;99987.63;4985541;28;20050;-53
2022/12/09 01:37:36;;;;;;;18.38;7.80;;;;;;;-2.27;80.50;99985.88;4989415;28;20081;-49
2022/12/09 01:40:09;;;;;;;17.15;7.50;;;;;;;-2.28;80.67;99994.34;4987550;28;20504;-50
2022/12/09 01:42:35;;;;;;;15.40;6.03;;;;;;;-2.31;80.57;99988.34;4989702;28;20053;-52
2022/12/09 01:45:22;;;;;;;14.43;7.38;;;;;;;-2.35;80.74;99984.84;4987782;28;20041;-54
2022/12/09 01:47:53;;;;;;;14.73;6.50;;;;;;;-2.36;80.88;99978.06;4985058;28;20523;-50
2022/12/09 01:50:19;;;;;;;16.73;7.40;;;;;;;-2.33;80.91;99985.75;4984849;28;20050;-48
2022/12/09 01:52:46;;;;;;;20.35;8.55;;;;;;;-2.45;80.69;99972.72;4969792;28;20081;-54
2022/12/09 01:55:13;;;;;;;19.60;7.70;;;;;;;-2.34;81.05;99989.09;4984938;28;20118;-49
2022/12/09 01:57:39;;;;;;;16.27;7.45;;;;;;;-2.35;80.83;99989.06;4969998;28;20149;-53
2022/12/09 02:00:06;;;;;;;11.88;5.57;;;;;;;-2.31;80.97;99994.28;4975406;28;20034;-49
2022/12/09 02:02:45;;;;;;;14.20;6.20;;;;;;;-2.54;80.79;99958.94;4982431;28;20057;-54
2022/12/09 02:05:11;;;;;;;13.40;5.68;;;;;;;-2.45;81.03;99990.56;4983643;28;20483;-52
2022/12/09 02:07:39;;;;;;;17.63;6.53;;;;;;;-2.82;80.64;99932.88;4977042;28;20138;-50
2022/12/09 02:10:10;;;;;;;22.20;8.32;;;;;;;-2.41;81.23;99988.97;4955692;28;20133;-53
2022/12/09 02:13:03;;;;;;;18.13;7.80;;;;;;;-2.21;80.98;99996.19;4945587;28;20520;-52
2022/12/09 02:15:45;;;;;;;17.13;7.72;;;;;;;-2.17;80.63;99997.97;4983822;28;20042;-53
2022/12/09 02:18:22;;;;;;;19.88;7.80;;;;;;;-2.25;80.47;99986.75;4970436;28;20098;-51
2022/12/09 02:20:54;;;;;;;20.05;7.88;;;;;;;-2.31;80.51;99989.19;4983306;28;20046;-50
2022/12/09 02:23:33;;;;;;;17.65;6.88;;;;;;;-2.35;80.70;99983.97;4966496;28;20085;-50
2022/12/09 02:26:10;;;;;;;13.77;6.78;;;;;;;-2.38;80.67;99992.41;4973104;28;20054;-50
2022/12/09 02:28:48;;;;;;;21.95;7.05;;;;;;;-2.35;81.25;99991.59;4972239;28;20403;-52
2022/12/09 02:31:52;;;;;;;15.38;6.70;;;;;;;-2.27;80.68;99990.97;4972499;28;20060;-51
2022/12/09 02:34:20;;;;;;;15.93;7.10;;;;;;;-2.26;80.59;99996.94;4970610;28;20096;-53
2022/12/09 02:36:55;;;;;;;14.57;6.82;;;;;;;-2.26;80.66;99999.47;4985545;28;20073;-53
2022/12/09 02:39:52;;;;;;;11.18;5.15;;;;;;;-2.31;80.71;99993.41;4988057;28;20574;-53
2022/12/09 02:42:23;;;;;;;18.50;7.28;;;;;;;-2.48;80.62;99965.03;4973336;28;20050;-53
2022/12/09 02:44:50;;;;;;;15.95;6.97;;;;;;;-2.31;80.85;99998.50;4989034;28;20507;-48
2022/12/09 02:47:21;;;;;;;14.55;7.18;;;;;;;-2.60;80.69;99936.75;4971874;28;20046;-52
2022/12/09 02:49:51;;;;;;;14.98;6.95;;;;;;;-2.23;80.62;99997.84;4955959;28;20062;-53
2022/12/09 02:52:19;;;;;;;16.75;7.15;;;;;;;-2.08;80.37;99984.56;4972264;28;20046;-53
2022/12/09 02:54:45;;;;;;;15.70;6.18;;;;;;;-2.08;80.12;99991.34;4953623;28;20426;-51
2022/12/09 02:57:17;;;;;;;19.88;7.40;;;;;;;-2.20;79.60;99997.91;4998420;28;20054;-50
2022/12/09 02:59:44;;;;;;;13.50;6.05;;;;;;;-2.45;79.66;99959.16;4988737;28;20069;-52
2022/12/09 03:02:13;;;;;;;18.83;7.38;;;;;;;-2.37;79.91;99980.56;5001560;28;20147;-53
2022/12/09 03:04:41;;;;;;;14.73;6.68;;;;;;;-2.31;79.97;99976.47;4970509;28;20042;-50
2022/12/09 03:07:13;;;;;;;15.52;6.60;;;;;;;-2.18;80.09;99975.88;4986227;28;20153;-49
2022/12/09 03:09:43;;;;;;;14.07;7.00;;;;;;;-2.03;79.40;99977.88;4969474;28;20089;-51
2022/12/09 03:12:10;;;;;;;16.05;6.97;;;;;;;-2.07;79.30;99972.69;4964293;28;20046;-51
2022/12/09 03:14:47;;;;;;;15.77;7.32;;;;;;;-2.15;79.27;99963.19;4978428;28;20043;-52
2022/12/09 03:17:20;;;;;;;16.17;7.65;;;;;;;-2.11;79.30;99964.16;4984266;28;20058;-52
2022/12/09 03:19:49;;;;;;;18.85;7.78;;;;;;;-2.27;79.28;99929.88;4988094;28;20039;-54
2022/12/09 03:22:19;;;;;;;15.32;6.88;;;;;;;-1.97;79.06;99966.97;4984673;28;20129;-50
2022/12/09 03:25:09;;;;;;;15.23;6.63;;;;;;;-1.95;78.86;99950.88;4969160;28;20046;-52
2022/12/09 03:27:43;;;;;;;20.50;7.93;;;;;;;-1.96;78.72;99959.34;4986949;28;20049;-50
2022/12/09 03:30:10;;;;;;;15.35;7.18;;;;;;;-2.04;78.58;99958.31;4987757;28;20065;-54
2022/12/09 03:32:37;;;;;;;17.10;7.18;;;;;;;-2.14;78.66;99956.41;4988292;28;20038;-56
2022/12/09 03:35:14;;;;;;;18.13;7.68;;;;;;;-2.05;78.83;99958.31;4987816;28;20827;-50
2022/12/09 03:37:41;;;;;;;17.23;7.75;;;;;;;-2.06;78.57;99964.22;4950934;28;20126;-51
2022/12/09 03:40:11;;;;;;;12.57;5.28;;;;;;;-2.26;78.50;99940.91;4984492;28;20065;-51
2022/12/09 03:45:30;;;;;;;17.02;6.10;;;;;;;-2.17;78.31;99967.41;5003100;28;20523;-49
2022/12/09 03:47:56;;;;;;;15.75;7.78;;;;;;;-2.22;78.41;99965.59;4992409;28;20130;-47
2022/12/09 03:50:25;;;;;;;18.73;7.90;;;;;;;-2.21;78.33;99958.00;4990765;28;20532;-54
2022/12/09 03:53:05;;;;;;;19.38;7.82;;;;;;;-2.18;78.31;99958.06;4989884;28;20209;-50
2022/12/09 03:55:46;;;;;;;24.75;6.88;;;;;;;-2.16;78.39;99951.31;4973205;28;20054;-53
2022/12/09 03:58:13;;;;;;;14.57;6.03;;;;;;;-2.11;78.36;99950.53;4982289;28;20062;-51
2022/12/09 04:00:39;;;;;;;14.23;6.45;;;;;;;-2.20;78.20;99958.88;4987863;28;20449;-49
2022/12/09 04:03:06;;;;;;;14.38;6.85;;;;;;;-2.61;78.22;99886.69;4991659;28;20049;-54
2022/12/09 04:05:32;;;;;;;14.57;6.47;;;;;;;-2.27;78.26;99952.78;4990002;28;20092;-51
2022/12/09 04:07:58;;;;;;;18.90;7.18;;;;;;;-2.28;78.68;99957.81;4991579;28;20054;-51
2022/12/09 04:10:24;;;;;;;19.58;8.57;;;;;;;-2.25;78.76;99946.00;4985535;28;20081;-53
2022/12/09 04:12:49;;;;;;;15.55;6.65;;;;;;;-2.36;78.44;99926.28;4989726;28;20050;-51
2022/12/09 04:15:16;;;;;;;23.17;7.72;;;;;;;-2.29;78.43;99945.91;4991061;28;20054;-52
2022/12/09 04:17:41;;;;;;;15.80;6.38;;;;;;;-2.24;78.49;99949.41;4991490;28;20050;-52
2022/12/09 04:20:08;;;;;;;17.15;7.00;;;;;;;-2.17;78.49;99952.13;4992715;28;20041;-51
2022/12/09 04:22:33;;;;;;;13.65;6.53;;;;;;;-2.02;78.47;99950.72;4991799;28;20041;-51
2022/12/09 04:24:59;;;;;;;16.77;6.15;;;;;;;-1.96;78.11;99946.63;4992185;28;20110;-55
2022/12/09 04:27:25;;;;;;;15.90;7.05;;;;;;;-1.97;78.08;99951.69;4992538;28;20042;-52
2022/12/09 04:29:51;;;;;;;15.23;6.65;;;;;;;-1.99;78.05;99953.34;4992538;28;20045;-54
2022/12/09 04:32:17;;;;;;;15.20;6.03;;;;;;;-2.05;78.25;99951.53;4980023;28;20043;-55
2022/12/09 04:34:43;;;;;;;17.05;7.43;;;;;;;-2.26;78.36;99918.00;4985298;28;20513;-54
2022/12/09 04:37:08;;;;;;;17.67;7.72;;;;;;;-2.06;78.56;99947.25;4997477;28;20055;-51
2022/12/09 04:39:34;;;;;;;17.67;7.40;;;;;;;-2.02;78.80;99943.09;4973152;28;20038;-59
2022/12/09 04:42:00;;;;;;;16.83;7.00;;;;;;;-1.93;78.65;99949.22;4993853;28;20078;-52
2022/12/09 04:44:26;;;;;;;17.90;7.35;;;;;;;-1.97;78.53;99942.34;4988913;28;20510;-54
2022/12/09 04:46:52;;;;;;;19.63;7.75;;;;;;;-1.94;78.35;99944.97;4997644;28;20049;-55
2022/12/09 04:49:18;;;;;;;22.13;9.52;;;;;;;-2.21;78.63;99912.16;4988678;28;20046;-55
2022/12/09 04:51:44;;;;;;;25.02;10.90;;;;;;;-1.94;78.72;99944.97;4988636;28;20100;-53
2022/12/09 04:54:13;;;;;;;27.38;10.63;;;;;;;-1.96;78.88;99951.72;4989747;28;20136;-48
2022/12/09 04:56:40;;;;;;;34.03;11.02;;;;;;;-1.95;78.98;99952.56;4990540;28;20515;-52
2022/12/09 04:59:06;;;;;;;27.77;11.73;;;;;;;-2.02;79.32;99936.31;4983176;28;20041;-46
2022/12/09 05:01:33;;;;;;;35.10;11.23;;;;;;;-2.02;79.66;99933.75;4977101;28;20429;-51
2022/12/09 05:03:58;;;;;;;36.67;12.68;;;;;;;-2.04;80.13;99940.50;4985676;28;20065;-54
2022/12/09 05:06:24;;;;;;;34.83;10.70;;;;;;;-2.04;80.54;99940.50;4990149;28;20080;-58
2022/12/09 05:08:50;;;;;;;45.97;14.07;;;;;;;-2.06;80.68;99938.75;4987900;28;20042;-54
2022/12/09 05:11:18;;;;;;;46.25;14.15;;;;;;;-2.05;81.21;99935.41;4988505;28;20045;-54
2022/12/09 05:13:44;;;;;;;40.15;13.93;;;;;;;-1.98;81.26;99937.22;4971266;28;20360;-55
2022/12/09 05:16:14;;;;;;;41.05;13.15;;;;;;;-1.92;81.28;99935.66;4984280;28;20038;-53
2022/12/09 05:18:40;;;;;;;39.33;13.25;;;;;;;-2.20;81.43;99885.03;4985712;28;20109;-55
2022/12/09 05:21:09;;;;;;;45.80;15.27;;;;;;;-1.94;81.38;99933.91;4987690;28;20050;-53
2022/12/09 05:23:35;;;;;;;45.67;14.93;;;;;;;-1.96;82.02;99918.59;4987400;28;20425;-55
2022/12/09 05:26:06;;;;;;;48.28;14.70;;;;;;;-1.99;81.92;99926.16;4990280;28;20407;-55
2022/12/09 05:28:33;;;;;;;38.83;13.50;;;;;;;-1.99;82.31;99927.88;4986345;28;20030;-53
2022/12/09 05:31:06;;;;;;;43.00;13.75;;;;;;;-1.99;82.80;99938.91;4989443;28;20050;-55
2022/12/09 05:33:32;;;;;;;40.33;13.77;;;;;;;-2.11;82.76;99936.13;4991234;28;20046;-57
2022/12/09 05:35:58;;;;;;;46.33;14.73;;;;;;;-2.30;83.39;99900.91;4990039;28;20054;-56
2022/12/09 05:38:24;;;;;;;39.90;15.55;;;;;;;-2.11;83.60;99938.69;4990945;28;20427;-51
2022/12/09 05:40:51;;;;;;;43.10;15.27;;;;;;;-2.14;84.04;99936.91;4991161;28;20038;-53
2022/12/09 05:43:18;;;;;;;45.65;14.40;;;;;;;-2.14;83.91;99939.47;4973601;28;20511;-50
2022/12/09 05:45:44;;;;;;;43.50;15.68;;;;;;;-2.11;84.55;99935.25;4989829;28;20034;-52
2022/12/09 05:48:09;;;;;;;48.05;15.13;;;;;;;-2.08;84.49;99928.53;4988994;28;20070;-54
2022/12/09 05:50:35;;;;;;;40.88;15.25;;;;;;;-2.13;84.90;99935.22;4990118;28;20070;-54
2022/12/09 05:53:02;;;;;;;44.40;13.95;;;;;;;-2.10;85.15;99924.25;4989769;28;20046;-50
2022/12/09 05:55:28;;;;;;;43.30;14.40;;;;;;;-2.14;85.43;99915.66;4988853;28;20520;-50
2022/12/09 05:57:54;;;;;;;38.08;12.10;;;;;;;-2.05;85.63;99925.22;4971183;28;20096;-51
2022/12/09 06:00:21;;;;;;;38.90;13.82;;;;;;;-2.07;85.77;99917.53;4989194;28;20046;-53
2022/12/09 06:02:47;;;;;;;50.08;15.13;;;;;;;-2.05;85.96;99915.88;4990887;28;20057;-49
2022/12/09 06:05:13;;;;;;;55.45;15.60;;;;;;;-1.99;86.06;99913.41;4990532;28;20042;-51
2022/12/09 06:07:39;;;;;;;31.17;12.18;;;;;;;-2.15;85.92;99902.06;4989874;28;20034;-53
2022/12/09 06:10:05;;;;;;;43.15;13.43;;;;;;;-2.07;86.29;99920.06;4990954;28;20510;-53
2022/12/09 06:12:32;;;;;;;49.03;15.75;;;;;;;-2.08;86.63;99917.47;4973417;28;20094;-52
2022/12/09 06:14:58;;;;;;;45.10;15.05;;;;;;;-1.99;86.94;99915.16;4989068;28;20426;-51
2022/12/09 06:17:24;;;;;;;43.80;13.52;;;;;;;-2.02;86.85;99920.16;4990290;28;20064;-56
2022/12/09 06:19:49;;;;;;;48.03;16.92;;;;;;;-1.97;87.33;99919.41;4988297;28;20089;-52
2022/12/09 06:22:15;;;;;;;39.40;13.18;;;;;;;-1.94;86.99;99919.50;4990131;28;20137;-50
2022/12/09 06:24:41;;;;;;;39.05;13.30;;;;;;;-2.10;87.17;99886.91;4990049;28;20129;-50
2022/12/09 06:27:07;;;;;;;41.40;13.45;;;;;;;-1.92;87.38;99911.88;4990113;28;20376;-50
2022/12/09 06:29:33;;;;;;;42.05;13.82;;;;;;;-2.10;87.13;99874.19;4989739;28;20093;-52
2022/12/09 06:31:59;;;;;;;30.58;11.88;;;;;;;-1.86;87.42;99923.03;4972504;28;20759;-50
2022/12/09 06:34:25;;;;;;;55.47;16.35;;;;;;;-1.86;87.59;99901.78;4990192;28;20125;-52
2022/12/09 06:36:51;;;;;;;42.97;14.85;;;;;;;-1.73;87.18;99908.84;4989206;28;20069;-50
2022/12/09 06:39:17;;;;;;;46.78;15.48;;;;;;;-1.72;87.17;99908.84;4990070;28;20042;-52
2022/12/09 06:41:43;;;;;;;47.70;17.10;;;;;;;-1.82;86.91;99878.06;5005003;28;20502;-54
2022/12/09 06:44:12;;;;;;;49.58;18.10;;;;;;;-1.50;86.63;99909.25;4990048;28;20040;-53
2022/12/09 06:46:38;;;;;;;43.05;14.73;;;;;;;-1.48;86.47;99905.03;4972825;28;20574;-51
2022/12/09 06:49:04;;;;;;;36.33;13.13;;;;;;;-1.43;86.13;99899.19;4988574;28;20125;-53
2022/12/09 06:51:30;;;;;;;44.15;15.18;;;;;;;-1.40;85.88;99891.56;4988720;28;20054;-52
2022/12/09 06:53:56;;;;;;;38.40;14.13;;;;;;;-1.68;85.46;99837.56;4989514;28;20478;-49
2022/12/09 06:56:22;;;;;;;40.92;15.88;;;;;;;-1.29;85.52;99892.63;4957840;28;20042;-50
2022/12/09 06:58:48;;;;;;;50.35;15.88;;;;;;;-1.32;85.20;99886.63;4969551;28;20069;-53
2022/12/09 07:01:20;;;;;;;41.90;15.73;;;;;;;-1.20;85.28;99896.16;4988788;28;20061;-52
2022/12/09 07:03:47;;;;;;;41.28;14.07;;;;;;;-1.18;84.79;99894.47;4972735;28;20101;-47
2022/12/09 07:06:27;;;;;;;39.15;13.93;;;;;;;-1.30;84.67;99895.13;4988757;28;20038;-55
2022/12/09 07:08:54;;;;;;;43.65;13.85;;;;;;;-1.28;84.56;99888.38;4988707;28;20046;-50
2022/12/09 07:11:19;;;;;;;41.22;15.18;;;;;;;-1.50;84.34;99860.81;4989816;28;21160;-49
2022/12/09 07:13:45;;;;;;;43.08;15.20;;;;;;;-1.29;84.36;99890.06;4989508;28;20034;-50
2022/12/09 07:16:11;;;;;;;37.65;14.93;;;;;;;-1.26;84.38;99871.41;4989749;28;20054;-52
2022/12/09 07:18:37;;;;;;;43.88;15.68;;;;;;;-1.14;84.16;99889.44;4990573;28;20049;-52
2022/12/09 07:21:12;;;;;;;37.95;13.57;;;;;;;-1.16;83.84;99880.06;4993558;28;20116;-55
2022/12/09 07:23:38;;;;;;;40.65;15.45;;;;;;;-1.17;84.05;99884.31;4993501;28;20045;-54
2022/12/09 07:26:05;;;;;;;39.47;14.73;;;;;;;-1.09;83.60;99894.63;4992363;28;20031;-51
2022/12/09 07:28:33;;;;;;;48.58;15.10;;;;;;;-1.18;83.22;99856.22;4992237;28;20042;-48
2022/12/09 07:30:59;;;;;;;42.47;14.48;;;;;;;-1.08;83.04;99873.38;4993432;28;20037;-53
2022/12/09 07:33:24;;;;;;;43.72;15.38;;;;;;;-1.22;83.00;99867.22;4975718;28;20053;-53
2022/12/09 07:35:54;;;;;;;40.95;14.73;;;;;;;-1.14;82.85;99878.38;4992172;28;20045;-47
2022/12/09 07:38:21;;;;;;;41.15;15.68;;;;;;;-1.11;82.86;99884.41;4944192;28;20398;-53
2022/12/09 07:40:47;;;;;;;46.75;17.73;;;;;;;-1.27;82.71;99859.50;4975680;28;20065;-56
2022/12/09 07:43:13;;;;;;;38.95;14.98;;;;;;;-1.13;82.39;99888.63;4991898;28;20499;-51
2022/12/09 07:45:39;;;;;;;45.40;16.13;;;;;;;-1.24;82.43;99886.72;4992438;28;20060;-53
2022/12/09 07:48:07;;;;;;;42.47;16.42;;;;;;;-1.15;82.42;99892.81;4993373;28;20049;-48
2022/12/09 07:50:33;;;;;;;42.17;15.98;;;;;;;-1.12;81.88;99889.47;4975936;28;20132;-52
2022/12/09 07:52:59;;;;;;;40.10;17.38;;;;;;;-1.25;81.71;99885.84;4993025;28;20092;-56
2022/12/09 07:55:26;;;;;;;38.72;16.13;;;;;;;-1.24;81.75;99904.56;4987822;28;20097;-48
2022/12/09 07:57:52;;;;;;;46.85;16.45;;;;;;;-1.29;81.36;99876.44;4956638;28;20503;-52
2022/12/09 08:00:18;;;;;;;38.47;16.88;;;;;;;-1.25;81.30;99877.34;4972755;28;20043;-53
2022/12/09 08:02:44;;;;;;;37.33;15.23;;;;;;;-1.31;81.46;99838.16;4978531;28;20045;-51
2022/12/09 08:05:10;;;;;;;37.08;14.82;;;;;;;-1.10;81.55;99862.31;4993032;28;20034;-51
2022/12/09 08:07:36;;;;;;;39.55;15.68;;;;;;;-1.03;81.10;99864.09;4991659;28;20053;-51
2022/12/09 08:10:02;;;;;;;39.45;15.13;;;;;;;-1.12;80.99;99869.94;4991695;28;20093;-50
2022/12/09 08:12:30;;;;;;;43.92;16.40;;;;;;;-1.13;80.83;99857.16;4991174;28;20426;-51
2022/12/09 08:14:56;;;;;;;41.85;15.82;;;;;;;-1.07;80.61;99858.09;4990954;28;20400;-51
2022/12/09 08:17:23;;;;;;;39.40;16.20;;;;;;;-1.44;80.49;99805.69;4958715;28;20053;-54
2022/12/09 08:19:49;;;;;;;38.50;15.45;;;;;;;-1.06;80.45;99843.66;4991100;28;20062;-55
2022/12/09 08:22:15;;;;;;;42.47;17.20;;;;;;;-1.03;80.22;99848.78;4991047;28;20518;-53
2022/12/09 08:24:41;;;;;;;42.50;17.50;;;;;;;-1.04;80.01;99840.28;4990392;28;20049;-53
2022/12/09 08:27:07;;;;;;;36.42;16.27;;;;;;;-1.00;80.08;99838.66;4992098;28;20069;-53
2022/12/09 08:29:33;;;;;;;35.97;14.13;;;;;;;-0.93;79.82;99843.84;4974348;28;20094;-52
2022/12/09 08:31:59;;;;;;;44.13;17.42;;;;;;;-1.19;79.68;99816.22;4990084;28;20443;-50
2022/12/09 08:34:25;;;;;;;42.38;16.70;;;;;;;-1.18;79.91;99790.75;4992100;28;20121;-54
2022/12/09 08:36:51;;;;;;;35.33;15.90;;;;;;;-0.84;79.67;99830.38;4991265;28;20065;-52
2022/12/09 08:39:17;;;;;;;40.50;15.70;;;;;;;-1.10;79.50;99784.06;4991527;28;20050;-51
2022/12/09 08:41:43;;;;;;;38.88;16.52;;;;;;;-0.87;79.22;99823.50;4992104;28;20526;-49
2022/12/09 08:44:14;;;;;;;33.70;15.63;;;;;;;-1.09;79.24;99773.03;4991124;28;20630;-54
2022/12/09 08:46:42;;;;;;;37.38;16.05;;;;;;;-0.72;78.93;99809.22;4992295;28;20044;-53
2022/12/09 08:49:09;;;;;;;29.65;13.27;;;;;;;-0.78;78.45;99801.50;4992285;28;20147;-52
2022/12/09 08:51:35;;;;;;;37.90;15.20;;;;;;;-0.78;78.66;99798.94;4990910;28;20498;-49
2022/12/09 08:54:01;;;;;;;43.67;14.52;;;;;;;-0.92;78.34;99752.84;4986931;28;20150;-54
2022/12/09 08:56:27;;;;;;;38.47;14.98;;;;;;;-0.71;78.17;99790.53;4990689;28;20065;-52
2022/12/09 08:58:54;;;;;;;31.35;12.98;;;;;;;-0.70;78.28;99782.91;4991854;28;20038;-51
2022/12/09 09:01:30;;;;;;;33.72;13.30;;;;;;;-0.72;77.94;99786.25;4992226;28;20050;-54
2022/12/09 09:03:58;;;;;;;31.33;13.30;;;;;;;-0.82;77.69;99769.97;4990819;28;20066;-50
2022/12/09 09:06:24;;;;;;;29.95;13.52;;;;;;;-0.85;77.90;99769.94;4991841;28;20060;-49
2022/12/09 09:08:50;;;;;;;29.60;12.00;;;;;;;-0.78;77.60;99781.06;4991525;28;20042;-50
2022/12/09 09:11:18;;;;;;;32.00;13.63;;;;;;;-0.82;77.81;99772.53;4992011;28;20046;-55
2022/12/09 09:13:46;;;;;;;31.33;13.55;;;;;;;-0.69;77.84;99771.84;4991981;28;20311;-55
2022/12/09 09:16:14;;;;;;;32.63;13.65;;;;;;;-0.67;77.73;99779.50;4990026;28;20578;-53
2022/12/09 09:18:40;;;;;;;31.98;14.20;;;;;;;-0.69;77.64;99779.50;4991307;28;20046;-51
2022/12/09 09:21:07;;;;;;;32.60;14.45;;;;;;;-0.67;77.92;99784.63;4989984;28;20049;-49
2022/12/09 09:23:33;;;;;;;34.20;13.60;;;;;;;-0.82;77.82;99764.00;4989905;28;20048;-50
2022/12/09 09:25:59;;;;;;;31.17;13.52;;;;;;;-0.78;77.89;99781.06;4990101;28;20038;-50
2022/12/09 09:28:25;;;;;;;33.88;13.38;;;;;;;-0.65;77.42;99776.16;4973263;28;20050;-51
2022/12/09 09:31:02;;;;;;;32.50;13.13;;;;;;;-0.73;77.60;99764.97;4991018;28;20061;-50
2022/12/09 09:33:28;;;;;;;31.60;13.43;;;;;;;-0.87;77.61;99752.06;4974054;28;20038;-52
2022/12/09 09:35:57;;;;;;;30.15;13.55;;;;;;;-0.72;77.65;99768.38;4991131;28;20566;-53
2022/12/09 09:38:24;;;;;;;;;;;;;;;-0.67;77.61;99770.16;4974221;28;20053;-54
2022/12/09 09:40:50;;;;;;;37.25;13.77;;;;;;;-0.67;77.45;99772.72;4990761;28;19918;-51
2022/12/09 09:43:19;;;;;;;33.72;14.00;;;;;;;-0.81;77.42;99753.84;4990532;28;20042;-49
2022/12/09 09:45:45;;;;;;;34.67;13.93;;;;;;;-0.74;77.76;99742.88;4973131;28;20046;-53
2022/12/09 09:48:21;;;;;;;32.00;12.98;;;;;;;-0.74;77.74;99744.56;4990987;28;20042;-51
2022/12/09 09:50:57;;;;;;;31.52;13.07;;;;;;;-0.81;77.38;99751.28;4989492;28;20088;-50
2022/12/09 09:53:25;;;;;;;24.98;10.45;;;;;;;-0.90;77.51;99752.03;4973385;28;20097;-50
2022/12/09 09:55:56;;;;;;;32.85;13.25;;;;;;;-1.01;77.64;99745.94;4986084;28;20530;-51
2022/12/09 09:58:43;;;;;;;30.75;14.07;;;;;;;-0.99;77.77;99741.69;4978903;28;20042;-53
2022/12/09 10:01:14;;;;;;;31.33;12.65;;;;;;;-0.99;78.01;99736.59;4989356;28;20540;-51
2022/12/09 10:04:05;;;;;;;31.55;14.73;;;;;;;-1.01;78.07;99733.19;4989397;28;20435;-51
2022/12/09 10:06:56;;;;;;;39.97;15.18;;;;;;;-0.87;78.17;99738.44;4989340;28;20042;-51
2022/12/09 10:09:36;;;;;;;37.40;15.75;;;;;;;-0.66;77.87;99720.81;4990235;28;20034;-50
2022/12/09 10:12:09;;;;;;;40.58;16.45;;;;;;;-0.58;77.63;99714.13;4990539;28;20077;-51
2022/12/09 10:14:55;;;;;;;45.47;16.65;;;;;;;-0.49;77.27;99713.34;4972966;28;20137;-51
2022/12/09 10:17:34;;;;;;;46.03;18.30;;;;;;;-0.36;77.47;99709.19;4990324;28;20060;-51
2022/12/09 10:20:12;;;;;;;44.47;17.63;;;;;;;-0.32;77.41;99699.06;4990307;28;20046;-55
2022/12/09 10:23:11;;;;;;;37.85;16.75;;;;;;;-0.47;77.04;99673.34;4988914;28;20042;-54
2022/12/09 10:25:43;;;;;;;42.20;16.27;;;;;;;-0.28;76.82;99711.00;4972842;28;20118;-52
2022/12/09 10:28:18;;;;;;;42.08;16.60;;;;;;;-0.34;76.87;99699.88;5004742;28;20482;-52
2022/12/09 10:30:44;;;;;;;42.63;16.23;;;;;;;-0.31;77.28;99695.63;4988427;28;20157;-53
2022/12/09 10:33:15;;;;;;;41.85;15.85;;;;;;;-0.28;76.60;99698.25;4988323;28;20125;-49
2022/12/09 10:35:42;;;;;;;40.92;16.38;;;;;;;-0.27;76.66;99691.44;4988588;28;20049;-52
2022/12/09 10:38:15;;;;;;;34.40;15.18;;;;;;;-0.25;76.76;99694.84;4988491;28;20116;-52
2022/12/09 10:40:48;;;;;;;34.72;15.02;;;;;;;-0.24;76.86;99684.66;4988458;28;20054;-52
2022/12/09 10:43:33;;;;;;;38.10;16.27;;;;;;;-0.21;76.38;99694.88;4988563;28;20085;-53
2022/12/09 10:46:01;;;;;;;40.53;15.93;;;;;;;-0.19;76.36;99682.97;4988650;28;20493;-54
2022/12/09 10:48:37;;;;;;;41.35;16.35;;;;;;;-0.27;76.48;99687.19;4955793;28;20041;-48
2022/12/09 10:51:06;;;;;;;41.42;15.52;;;;;;;-0.39;76.25;99678.53;4969063;28;20066;-54
2022/12/09 10:53:59;;;;;;;35.83;15.18;;;;;;;-0.43;76.57;99678.53;4968301;28;20121;-52
2022/12/09 10:56:37;;;;;;;36.65;14.82;;;;;;;-0.49;76.47;99690.38;4984294;28;20101;-53
2022/12/09 10:59:18;;;;;;;37.90;15.63;;;;;;;-0.44;76.46;99686.16;4987642;28;20042;-51
2022/12/09 11:01:55;;;;;;;33.78;14.50;;;;;;;-0.50;76.19;99683.53;4989726;28;20050;-50
2022/12/09 11:04:25;;;;;;;34.40;15.10;;;;;;;-0.46;75.71;99680.16;4989657;28;20140;-54
2022/12/09 11:06:53;;;;;;;31.33;13.43;;;;;;;-0.47;75.63;99674.22;4972393;28;20062;-51
2022/12/09 11:09:31;;;;;;;29.35;12.27;;;;;;;-0.50;75.62;99668.22;4971669;28;20776;-53
2022/12/09 11:11:57;;;;;;;30.15;13.73;;;;;;;-0.66;75.61;99664.66;4988275;28;20129;-53
2022/12/09 11:14:29;;;;;;;36.88;16.35;;;;;;;-0.66;75.61;99658.69;4989510;28;20034;-53
2022/12/09 11:16:57;;;;;;;33.50;14.02;;;;;;;-0.68;75.65;99653.56;4971978;28;20042;-54
2022/12/09 11:19:34;;;;;;;34.08;14.82;;;;;;;-0.54;75.51;99646.06;4989390;28;20074;-52
2022/12/09 11:22:21;;;;;;;33.28;13.70;;;;;;;-0.47;75.46;99651.22;5004255;28;20038;-52
2022/12/09 11:24:53;;;;;;;30.90;14.15;;;;;;;-0.54;75.10;99657.13;4987923;28;20043;-55
2022/12/09 11:27:32;;;;;;;38.10;13.68;;;;;;;-0.72;74.78;99633.09;4987957;28;20058;-51
2022/12/09 11:30:19;;;;;;;33.60;14.43;;;;;;;-0.63;74.89;99662.13;4987518;28;20125;-54
2022/12/09 11:32:54;;;;;;;34.00;15.63;;;;;;;-0.55;74.85;99654.56;4989182;28;20054;-52